Aviation Digital Data Service (ADDS)

Output produced by METARs form (1950 UTC 19 September 2014)
found at http://www.aviationweather.gov/adds/metars/
 
KDUJ 191853Z AUTO 15006KT 10SM FEW036 18/10 A3024 RMK AO2 SLP239 T01780100
KDUJ 191753Z AUTO 13008KT 10SM SCT031 19/10 A3025 RMK AO2 SLP241 T01890100 10189 20061 58009
KDUJ 191653Z AUTO 11005KT 10SM CLR 17/10 A3026 RMK AO2 SLP248 T01670100
KDUJ 191553Z AUTO 12008KT 10SM CLR 15/09 A3027 RMK AO2 SLP251 T01500089
KDUJ 191453Z AUTO 13007KT 10SM CLR 12/08 A3028 RMK AO2 SLP255 T01220083 53002
KDUJ 191418Z AUTO 11006KT 10SM SCT007 11/08 A3028 RMK AO2 T01110083
KDUJ 191401Z AUTO 10006KT 10SM BKN005 10/08 A3027 RMK AO2 T01000083
KDUJ 191353Z AUTO 10009KT 10SM BKN004 09/08 A3027 RMK AO2 CIG 003V007 SLP255 T00890078
KDUJ 191306Z AUTO 10006KT 3SM BR OVC002 08/07 A3027 RMK AO2 T00780072
KDUJ 191253Z AUTO 09008KT 1SM BR VV002 07/07 A3027 RMK AO2 SLP254 T00720067
KDUJ 191212Z AUTO 09006KT 1/4SM FG OVC002 06/06 A3027 RMK AO2 T00610061
KDUJ 191153Z AUTO 09005KT 1 3/4SM BR BKN003 06/06 A3026 RMK AO2 SLP251 T00610056 10083 20050 53014
KDUJ 191137Z AUTO 08005KT 3/4SM BR VV004 06/05 A3026 RMK AO2 T00560050
KDUJ 191120Z AUTO 09006KT 1 1/2SM BR CLR 06/05 A3025 RMK AO2 T00560050
KDUJ 191110Z AUTO 09005KT 2SM BR CLR 06/05 A3025 RMK AO2 T00560050
KDUJ 191053Z AUTO 09006KT 3SM BR CLR 06/06 A3025 RMK AO2 SLP245 T00560056
KDUJ 191046Z AUTO 10006KT 2 1/2SM BR CLR 06/06 A3024 RMK AO2 T00560056
KDUJ 191030Z AUTO 08005KT 1 3/4SM BR CLR 06/06 A3024 RMK AO2 T00560056
KDUJ 190953Z AUTO 10004KT 6SM BR CLR 06/06 A3023 RMK AO2 SLP239 T00610056
KDUJ 190853Z AUTO 06006KT 9SM FEW043 07/06 A3022 RMK AO2 SLP233 T00720061 53006
KDUJ 190753Z AUTO 05005KT 9SM CLR 08/07 A3021 RMK AO2 SLP229 T00780067
KDUJ 190653Z AUTO 05005KT 8SM CLR 08/07 A3021 RMK AO2 SLP230 T00780072
KDUJ 190553Z AUTO 06005KT 10SM CLR 08/07 A3020 RMK AO2 SLP227 T00830072 10144 20083 53013
KDUJ 190453Z AUTO 03006KT 10SM BKN055 09/08 A3019 RMK AO2 SLP222 T00940078 401940067
KDUJ 190353Z AUTO 03004KT 10SM SCT055 10/08 A3017 RMK AO2 SLP216 T01000083
KDUJ 190253Z AUTO 04005KT 10SM CLR 10/08 A3016 RMK AO2 SLP215 T01000083 51019
KDUJ 190153Z AUTO 01007KT 10SM CLR 12/09 A3015 RMK AO2 SLP211 T01170089
KDUJ 190053Z AUTO 36007KT 10SM CLR 13/09 A3013 RMK AO2 SLP204 T01330089
KDUJ 182353Z AUTO 36005KT 10SM FEW065 14/08 A3010 RMK AO2 SLP196 T01440078 10194 20144 53010
KDUJ 182253Z AUTO 32004KT 10SM FEW060 FEW070 16/08 A3009 RMK AO2 SLP190 T01560083
KDUJ 182153Z AUTO 33007KT 10SM CLR 17/08 A3007 RMK AO2 SLP184 T01720083
KDUJ 182053Z AUTO 31006KT 10SM SCT055 18/07 A3007 RMK AO2 SLP182 T01830067 56003
KDUJ 181953Z AUTO 29006KT 10SM FEW050 BKN060 19/08 A3008 RMK AO2 SLP184 T01890078
KDUJ 181853Z AUTO VRB04KT 10SM SCT050 17/07 A3008 RMK AO2 SLP184 T01720067
KDUJ 181753Z AUTO 31007KT 10SM BKN044 17/07 A3008 RMK AO2 SLP185 T01670067 10172 20078 50002
KDUJ 181653Z AUTO 02003KT 10SM BKN041 16/08 A3009 RMK AO2 SLP189 T01610078
KDUJ 181553Z AUTO 01010KT 10SM SCT034 16/08 A3008 RMK AO2 SLP187 T01610078
KDUJ 181453Z AUTO 33008KT 10SM CLR 14/08 A3008 RMK AO2 SLP185 T01440078 51009
KDUJ 181353Z AUTO 01005KT 10SM CLR 13/10 A3007 RMK AO2 SLP183 T01280100
KDUJ 181336Z AUTO 36004KT 10SM SCT026 SCT035 12/10 A3007 RMK AO2 T01220100
KDUJ 181253Z AUTO 00000KT 10SM BKN024 11/09 A3006 RMK AO2 SLP178 T01110094
KDUJ 181153Z AUTO 00000KT 8SM CLR 07/07 A3005 RMK AO2 SLP178 T00720067 10094 20067 53013
KDUJ 181142Z AUTO 00000KT 5SM BR CLR 07/07 A3004 RMK AO2 T00670067
KDUJ 181123Z AUTO 00000KT 2 1/2SM BR CLR 07/07 A3004 RMK AO2 T00720067
KDUJ 181112Z AUTO 00000KT 1 3/4SM BR CLR 07/06 A3004 RMK AO2 VIS 3/4V3 T00670061
KDUJ 181053Z AUTO 00000KT 10SM CLR 08/07 A3003 RMK AO2 SLP170 T00780067
KDUJ 180953Z AUTO 33003KT 10SM FEW050 07/07 A3002 RMK AO2 SLP165 T00720067
KDUJ 180853Z AUTO 00000KT 8SM FEW050 08/07 A3001 RMK AO2 SLP161 T00780067 53003
KDUJ 180753Z AUTO 00000KT 7SM FEW050 07/06 A3000 RMK AO2 SLP159 T00670061